Time;durP1;ratioP1;P1;durP2;ratioP2;P2;SDS_P1;SDS_P2;PMS_P1;PMS_P2;Temp;Humidity;BMP_temperature;BMP_pressure;BME280_temperature;BME280_humidity;BME280_pressure;Samples;Min_cycle;Max_cycle;Signal;HPM_P1;HPM_P2
2023/05/08 00:01:43;;;;;;;6.70;4.90;;;;;;;13.12;100.00;94162.94;4802517;29;20501;-63
2023/05/08 00:04:10;;;;;;;5.67;4.10;;;;;;;13.30;100.00;94162.59;4803005;29;20179;-61
2023/05/08 00:06:37;;;;;;;7.10;4.57;;;;;;;13.45;100.00;94156.78;4802216;29;20059;-61
2023/05/08 00:09:03;;;;;;;6.90;4.20;;;;;;;13.51;100.00;94152.31;4802654;29;20047;-64
2023/05/08 00:11:30;;;;;;;7.63;4.53;;;;;;;13.53;100.00;94158.94;4801862;29;20122;-62
2023/05/08 00:13:57;;;;;;;6.88;4.90;;;;;;;13.58;100.00;94161.19;4786502;29;20079;-61
2023/05/08 00:16:23;;;;;;;17.37;11.07;;;;;;;13.59;100.00;94165.47;4786400;29;20043;-61
2023/05/08 00:18:52;;;;;;;8.82;6.13;;;;;;;13.59;100.00;94157.22;4801761;29;20058;-63
2023/05/08 00:21:19;;;;;;;7.75;4.80;;;;;;;13.48;100.00;94150.38;4802171;29;20358;-64
2023/05/08 00:23:46;;;;;;;6.85;4.80;;;;;;;13.41;100.00;94154.09;4801938;29;20062;-61
2023/05/08 00:26:12;;;;;;;6.03;4.43;;;;;;;13.49;100.00;94154.72;4802409;29;20062;-64
2023/05/08 00:28:39;;;;;;;6.23;4.60;;;;;;;13.50;100.00;94151.53;4801459;29;20056;-64
2023/05/08 00:31:05;;;;;;;5.55;4.07;;;;;;;13.50;100.00;94153.50;4802551;29;20051;-61
2023/05/08 00:33:32;;;;;;;6.47;4.50;;;;;;;13.48;100.00;94162.22;4801734;29;20099;-61
2023/05/08 00:36:03;;;;;;;5.78;4.50;;;;;;;13.46;100.00;94156.34;4802096;29;20054;-61
2023/05/08 00:38:31;;;;;;;6.25;4.63;;;;;;;13.46;100.00;94155.56;4801890;29;20516;-60
2023/05/08 00:40:59;;;;;;;5.83;4.40;;;;;;;13.49;100.00;94160.22;4801063;29;20697;-61
2023/05/08 00:43:27;;;;;;;6.78;4.88;;;;;;;13.43;100.00;94157.19;4801886;29;20054;-61
2023/05/08 00:46:00;;;;;;;7.10;5.15;;;;;;;13.34;100.00;94157.78;4801304;29;20051;-62
2023/05/08 00:48:29;;;;;;;6.05;4.53;;;;;;;13.37;100.00;94150.63;4802033;29;20143;-61
2023/05/08 00:50:57;;;;;;;6.82;5.28;;;;;;;13.38;100.00;94152.16;4801548;29;20403;-61
2023/05/08 00:53:26;;;;;;;5.63;4.33;;;;;;;13.40;100.00;94160.81;4801681;29;20079;-61
2023/05/08 00:55:53;;;;;;;8.10;4.45;;;;;;;13.44;100.00;94156.00;4785227;29;20042;-61
2023/05/08 00:58:22;;;;;;;7.35;4.60;;;;;;;13.47;100.00;94163.41;4801526;29;20061;-61
2023/05/08 01:00:53;;;;;;;6.85;4.82;;;;;;;13.47;100.00;94165.38;4801046;29;20054;-60
2023/05/08 01:03:20;;;;;;;7.78;4.72;;;;;;;13.35;100.00;94164.06;4801902;29;20043;-61
2023/05/08 01:05:47;;;;;;;7.27;4.50;;;;;;;13.29;100.00;94168.50;4801019;29;20485;-64
2023/05/08 01:08:14;;;;;;;7.22;4.80;;;;;;;13.05;100.00;94170.59;4801710;29;20084;-61
2023/05/08 01:10:53;;;;;;;6.65;5.10;;;;;;;13.02;100.00;94172.22;4801079;29;20070;-61
2023/05/08 01:13:46;;;;;;;9.35;5.38;;;;;;;12.83;100.00;94179.28;4801643;29;20051;-61
2023/05/08 01:16:38;;;;;;;6.88;5.10;;;;;;;12.81;100.00;94187.19;4800397;29;20085;-63
2023/05/08 01:19:14;;;;;;;7.40;5.00;;;;;;;13.06;100.00;94170.16;4775321;29;20050;-61
2023/05/08 01:21:49;;;;;;;6.60;4.88;;;;;;;13.13;100.00;94174.75;4801090;29;20051;-61
2023/05/08 01:24:34;;;;;;;7.10;4.63;;;;;;;13.16;100.00;94177.44;4801398;29;20054;-64
2023/05/08 01:27:28;;;;;;;7.03;5.00;;;;;;;13.25;100.00;94184.34;4800682;29;21000;-61
2023/05/08 01:30:25;;;;;;;7.13;5.10;;;;;;;13.14;100.00;94177.09;4792064;29;20039;-64
2023/05/08 01:33:07;;;;;;;6.60;4.87;;;;;;;13.17;100.00;94180.97;4801048;29;20416;-61
2023/05/08 01:35:48;;;;;;;7.63;5.10;;;;;;;13.18;100.00;94182.53;4800536;29;20050;-61
2023/05/08 01:38:20;;;;;;;6.25;5.10;;;;;;;13.22;100.00;94190.69;4801515;29;20437;-64
2023/05/08 01:40:49;;;;;;;7.47;4.90;;;;;;;13.28;100.00;94181.53;4800649;29;20053;-64
2023/05/08 01:43:32;;;;;;;6.90;4.90;;;;;;;13.28;100.00;94181.53;4801384;29;20405;-64
2023/05/08 01:46:07;;;;;;;7.50;5.00;;;;;;;13.28;100.00;94187.03;4800538;29;20055;-62
2023/05/08 01:48:41;;;;;;;6.90;5.30;;;;;;;13.13;100.00;94181.03;4800893;29;20039;-61
2023/05/08 01:51:16;;;;;;;7.72;5.43;;;;;;;12.78;100.00;94183.31;4801044;29;20046;-61
2023/05/08 01:53:48;;;;;;;6.78;5.25;;;;;;;12.93;100.00;94186.53;4800790;29;20062;-62
2023/05/08 01:56:22;;;;;;;8.68;5.03;;;;;;;13.07;100.00;94179.97;4801176;29;20115;-62
2023/05/08 01:58:51;;;;;;;7.90;5.10;;;;;;;13.11;100.00;94188.94;4800879;29;20081;-64
2023/05/08 02:01:23;;;;;;;6.20;4.82;;;;;;;13.15;100.00;94184.13;4800813;29;20058;-62
2023/05/08 02:03:51;;;;;;;7.43;5.43;;;;;;;13.15;100.00;94191.63;4800875;29;20046;-63
2023/05/08 02:06:20;;;;;;;8.05;5.57;;;;;;;13.19;100.00;94182.06;4788043;29;20061;-63
2023/05/08 02:08:50;;;;;;;9.35;5.70;;;;;;;13.17;100.00;94186.47;4800808;29;20416;-65
2023/05/08 02:11:18;;;;;;;8.60;6.37;;;;;;;12.95;100.00;94189.66;4801191;29;20111;-65
2023/05/08 02:13:47;;;;;;;11.10;6.45;;;;;;;12.73;100.00;94200.31;4800671;29;20442;-64
2023/05/08 02:16:15;;;;;;;9.52;6.07;;;;;;;12.87;100.00;94193.75;4800352;29;20043;-65
2023/05/08 02:18:47;;;;;;;9.18;5.85;;;;;;;12.87;100.00;94196.50;4803891;29;20737;-62
2023/05/08 02:21:14;;;;;;;12.02;7.00;;;;;;;12.54;100.00;94198.31;4804435;29;20047;-61
2023/05/08 02:23:44;;;;;;;8.50;6.30;;;;;;;12.84;100.00;94194.63;4800485;29;20057;-61
2023/05/08 02:26:14;;;;;;;10.10;6.20;;;;;;;12.95;100.00;94186.91;4799082;29;20054;-61
2023/05/08 02:28:41;;;;;;;9.25;6.60;;;;;;;13.00;100.00;94191.16;4804023;29;20047;-61
2023/05/08 02:31:10;;;;;;;9.18;6.97;;;;;;;12.93;100.00;94188.53;4804299;29;20103;-61
2023/05/08 02:33:40;;;;;;;10.25;7.00;;;;;;;12.95;100.00;94186.13;4803978;29;20063;-64
2023/05/08 02:36:09;;;;;;;10.97;6.73;;;;;;;12.67;100.00;94188.22;4804281;29;20047;-63
2023/05/08 02:38:38;;;;;;;10.43;7.40;;;;;;;12.52;100.00;94186.97;4804059;29;20055;-61
2023/05/08 02:41:06;;;;;;;10.30;7.90;;;;;;;12.29;100.00;94183.00;4804465;29;20516;-63
2023/05/08 02:43:34;;;;;;;9.77;7.13;;;;;;;12.63;100.00;94186.75;4803830;29;20038;-64
2023/05/08 02:46:06;;;;;;;9.30;6.70;;;;;;;12.83;100.00;94192.28;4803142;29;20069;-64
2023/05/08 02:48:39;;;;;;;10.27;6.93;;;;;;;12.93;100.00;94183.03;4803608;29;20050;-65
2023/05/08 02:51:15;;;;;;;11.10;7.57;;;;;;;12.88;100.00;94175.28;4804141;29;20047;-62
2023/05/08 02:53:50;;;;;;;8.98;7.10;;;;;;;12.76;100.00;94180.19;4803669;29;20051;-60
2023/05/08 02:56:26;;;;;;;11.32;8.00;;;;;;;12.68;100.00;94187.03;4803758;29;20055;-64
2023/05/08 02:59:00;;;;;;;14.20;7.60;;;;;;;12.82;100.00;94188.75;4803656;29;20051;-61
2023/05/08 03:01:40;;;;;;;11.70;7.97;;;;;;;12.77;100.00;94191.97;4803961;29;20168;-61
2023/05/08 03:04:11;;;;;;;11.63;8.40;;;;;;;12.82;100.00;94194.25;4803126;29;20046;-61
2023/05/08 03:06:41;;;;;;;9.57;7.68;;;;;;;12.88;100.00;94187.06;4803097;29;20050;-61
2023/05/08 03:09:19;;;;;;;11.40;7.43;;;;;;;12.97;100.00;94187.25;4803676;29;20057;-61
2023/05/08 03:11:48;;;;;;;10.52;7.60;;;;;;;12.95;100.00;94192.41;4802776;29;20055;-61
2023/05/08 03:14:19;;;;;;;9.20;6.70;;;;;;;13.02;100.00;94188.75;4803692;29;20043;-61
2023/05/08 03:16:49;;;;;;;10.50;7.10;;;;;;;12.99;100.00;94192.34;4803018;29;20047;-60
2023/05/08 03:19:23;;;;;;;9.50;6.88;;;;;;;13.00;100.00;94191.16;4803382;29;20054;-61
2023/05/08 03:21:52;;;;;;;10.45;6.72;;;;;;;13.02;100.00;94193.47;4803119;29;20042;-60
2023/05/08 03:24:22;;;;;;;9.27;6.70;;;;;;;13.02;100.00;94191.50;4803381;29;20047;-61
2023/05/08 03:26:49;;;;;;;10.60;7.70;;;;;;;12.92;100.00;94195.25;4802401;29;20051;-60
2023/05/08 03:29:17;;;;;;;11.57;8.00;;;;;;;12.96;100.00;94195.97;4803147;29;20054;-61
2023/05/08 03:31:46;;;;;;;12.85;8.63;;;;;;;12.82;100.00;94197.00;4781993;30;20055;-61
2023/05/08 03:34:15;;;;;;;12.60;9.25;;;;;;;12.72;100.00;94206.25;4802950;29;20059;-60
2023/05/08 03:36:41;;;;;;;14.00;9.27;;;;;;;12.71;100.00;94205.47;4801945;29;20555;-61
2023/05/08 03:39:08;;;;;;;13.53;8.53;;;;;;;12.79;100.00;94204.13;4802568;29;20118;-62
2023/05/08 03:41:35;;;;;;;13.10;8.73;;;;;;;12.71;100.00;94208.22;4801756;29;20051;-61
2023/05/08 03:44:03;;;;;;;10.40;7.45;;;;;;;12.84;100.00;94205.63;4802486;29;20043;-62
2023/05/08 03:46:34;;;;;;;10.25;7.25;;;;;;;12.91;100.00;94204.72;4801897;29;20111;-63
2023/05/08 03:49:03;;;;;;;9.43;6.90;;;;;;;12.97;100.00;94197.50;4801407;29;20701;-61
2023/05/08 03:51:31;;;;;;;9.43;7.20;;;;;;;13.01;100.00;94200.19;4801943;29;20050;-63
2023/05/08 03:53:58;;;;;;;9.23;6.63;;;;;;;13.07;100.00;94198.50;4801003;29;20842;-63
2023/05/08 03:56:24;;;;;;;9.57;6.63;;;;;;;13.06;100.00;94194.97;4785737;29;20080;-62
2023/05/08 03:59:13;;;;;;;8.38;6.20;;;;;;;13.09;100.00;94209.88;4801542;29;20058;-63
2023/05/08 04:01:49;;;;;;;7.85;5.50;;;;;;;13.04;100.00;94196.56;4801483;29;20516;-63
2023/05/08 04:04:17;;;;;;;9.60;5.30;;;;;;;12.93;100.00;94200.31;4786155;29;20047;-61
2023/05/08 04:07:07;;;;;;;7.63;5.57;;;;;;;12.90;100.00;94195.66;4801274;29;20458;-61
2023/05/08 04:09:38;;;;;;;7.78;5.15;;;;;;;12.89;100.00;94199.63;4790128;29;20047;-60
2023/05/08 04:12:18;;;;;;;9.93;5.10;;;;;;;12.91;100.00;94199.19;4801933;29;20099;-63
2023/05/08 04:14:51;;;;;;;6.93;5.20;;;;;;;12.91;100.00;94199.97;4801476;29;20047;-61
2023/05/08 04:17:31;;;;;;;6.97;4.57;;;;;;;12.97;100.00;94201.03;4801581;29;20049;-64
2023/05/08 04:20:03;;;;;;;7.63;5.50;;;;;;;12.91;100.00;94204.72;4800739;29;20199;-62
2023/05/08 04:22:33;;;;;;;9.60;7.05;;;;;;;12.58;100.00;94204.53;4801079;29;20396;-61
2023/05/08 04:25:02;;;;;;;9.90;7.10;;;;;;;12.67;100.00;94202.00;4802044;29;20042;-62
2023/05/08 04:27:30;;;;;;;8.73;5.85;;;;;;;12.79;100.00;94203.34;4801380;29;20046;-63
2023/05/08 04:29:57;;;;;;;8.00;5.30;;;;;;;12.87;100.00;94204.78;4801077;29;21710;-63
2023/05/08 04:32:25;;;;;;;7.93;5.30;;;;;;;12.92;100.00;94206.28;4800041;29;20390;-60
2023/05/08 04:34:52;;;;;;;10.63;6.00;;;;;;;12.91;100.00;94204.72;4801928;29;20053;-60
2023/05/08 04:37:24;;;;;;;7.90;5.50;;;;;;;12.98;100.00;94210.09;4802155;29;20040;-60
2023/05/08 04:39:52;;;;;;;6.30;4.78;;;;;;;13.13;100.00;94208.59;4801152;29;20545;-62
2023/05/08 04:42:19;;;;;;;38.73;24.00;;;;;;;13.15;100.00;94214.44;4802168;29;20119;-61
2023/05/08 04:44:46;;;;;;;19.73;12.02;;;;;;;13.12;100.00;94204.28;4801162;29;20069;-61
2023/05/08 04:47:13;;;;;;;7.93;6.00;;;;;;;13.10;100.00;94211.41;4801686;29;20430;-61
2023/05/08 04:49:40;;;;;;;10.85;6.90;;;;;;;12.85;100.00;94215.44;4801275;29;20047;-61
2023/05/08 04:52:07;;;;;;;10.23;6.53;;;;;;;12.59;100.00;94223.38;4802031;29;20039;-61
2023/05/08 04:54:34;;;;;;;8.87;6.53;;;;;;;12.52;100.00;94229.03;4785503;29;20035;-61
2023/05/08 04:57:00;;;;;;;10.63;6.90;;;;;;;12.60;100.00;94215.91;4801595;29;20050;-60
2023/05/08 04:59:28;;;;;;;10.60;6.70;;;;;;;12.60;100.00;94226.94;4785691;29;20055;-60
2023/05/08 05:01:56;;;;;;;8.40;6.15;;;;;;;12.86;100.00;94230.78;4785194;29;20046;-60
2023/05/08 05:04:22;;;;;;;9.32;6.20;;;;;;;13.03;100.00;94228.88;4801752;29;20045;-61
2023/05/08 05:06:49;;;;;;;10.27;6.20;;;;;;;13.03;100.00;94231.63;4801101;29;20131;-60
2023/05/08 05:09:16;;;;;;;8.25;5.80;;;;;;;13.18;100.00;94229.38;4770603;29;20102;-63
2023/05/08 05:11:42;;;;;;;7.75;5.50;;;;;;;13.13;100.00;94229.84;4801120;29;20463;-63
2023/05/08 05:14:09;;;;;;;7.63;5.82;;;;;;;13.25;100.00;94228.44;4801581;29;20053;-59
2023/05/08 05:16:36;;;;;;;10.60;6.07;;;;;;;13.43;100.00;94228.88;4801024;29;20061;-62
2023/05/08 05:19:03;;;;;;;9.10;6.43;;;;;;;13.52;100.00;94226.31;4801107;29;20517;-62
2023/05/08 05:21:30;;;;;;;8.70;6.03;;;;;;;13.49;100.00;94227.16;4801501;29;20080;-64
2023/05/08 05:23:57;;;;;;;8.45;5.95;;;;;;;13.59;100.00;94237.19;4800688;29;20894;-63
2023/05/08 05:26:23;;;;;;;8.40;5.55;;;;;;;13.78;100.00;94232.03;4785095;29;20057;-62
2023/05/08 05:28:50;;;;;;;8.73;5.38;;;;;;;13.88;100.00;94236.53;4784760;29;20055;-62
2023/05/08 05:31:17;;;;;;;8.80;5.57;;;;;;;13.74;100.00;94232.16;4785145;29;20111;-62
2023/05/08 05:33:44;;;;;;;7.07;5.38;;;;;;;13.98;100.00;94229.22;4801044;29;20059;-63
2023/05/08 05:36:11;;;;;;;8.20;5.55;;;;;;;13.61;100.00;94236.00;4801233;29;20872;-64
2023/05/08 05:38:38;;;;;;;6.63;5.30;;;;;;;14.38;100.00;94232.59;4800792;29;20058;-63
2023/05/08 05:41:04;;;;;;;7.03;4.88;;;;;;;14.87;100.00;94225.47;4801377;29;20490;-66
2023/05/08 05:43:32;;;;;;;7.47;4.97;;;;;;;15.17;100.00;94227.81;4800620;29;20055;-61
2023/05/08 05:46:06;;;;;;;6.63;5.28;;;;;;;15.27;100.00;94225.16;4801443;29;20047;-62
2023/05/08 05:48:33;;;;;;;6.75;4.95;;;;;;;15.17;100.00;94229.78;4800789;29;20055;-66
2023/05/08 05:51:00;;;;;;;5.97;4.65;;;;;;;15.28;100.00;94229.50;4774773;30;20035;-64
2023/05/08 05:53:27;;;;;;;7.45;4.85;;;;;;;15.35;100.00;94237.56;4801955;29;20055;-62
2023/05/08 05:55:53;;;;;;;8.33;5.60;;;;;;;14.19;100.00;94239.78;4788063;29;20057;-62
2023/05/08 05:58:20;;;;;;;7.35;5.57;;;;;;;14.07;100.00;94250.72;4804778;29;20051;-63
2023/05/08 06:00:47;;;;;;;6.82;5.47;;;;;;;14.56;100.00;94245.97;4803525;29;20115;-63
2023/05/08 06:03:13;;;;;;;7.80;5.30;;;;;;;14.66;100.00;94238.63;4804547;29;20382;-64
2023/05/08 06:05:40;;;;;;;6.60;4.65;;;;;;;14.85;100.00;94244.47;4804005;29;20122;-62
2023/05/08 06:08:07;;;;;;;7.20;4.33;;;;;;;15.05;100.00;94241.56;4788356;29;20107;-61
2023/05/08 06:10:35;;;;;;;8.05;4.85;;;;;;;15.10;100.00;94249.34;4803780;29;20115;-61
2023/05/08 06:13:01;;;;;;;8.32;5.25;;;;;;;15.16;100.00;94245.59;4804111;29;20612;-63
2023/05/08 06:15:28;;;;;;;7.35;5.20;;;;;;;15.42;100.00;94244.91;4803596;29;20067;-61
2023/05/08 06:17:55;;;;;;;7.07;4.70;;;;;;;15.74;100.00;94246.75;4803532;29;20054;-64
2023/05/08 06:20:22;;;;;;;7.77;5.13;;;;;;;15.76;100.00;94241.56;4804019;29;20051;-61
2023/05/08 06:22:51;;;;;;;7.18;4.90;;;;;;;15.70;100.00;94246.06;4803999;29;20408;-62
2023/05/08 06:25:19;;;;;;;6.45;4.97;;;;;;;15.39;100.00;94246.53;4804569;29;20050;-61
2023/05/08 06:27:45;;;;;;;6.43;4.80;;;;;;;15.42;100.00;94251.22;4798528;29;20083;-61
2023/05/08 06:30:12;;;;;;;9.18;4.60;;;;;;;15.36;100.00;94250.97;4804673;29;20387;-61
2023/05/08 06:32:39;;;;;;;6.53;4.83;;;;;;;15.35;100.00;94252.19;4804118;29;20420;-64
2023/05/08 06:35:06;;;;;;;5.95;4.53;;;;;;;15.14;100.00;94250.03;4804509;29;20051;-62
2023/05/08 06:37:33;;;;;;;7.20;4.88;;;;;;;15.21;100.00;94249.03;4804229;29;20077;-62
2023/05/08 06:40:00;;;;;;;6.05;4.10;;;;;;;15.28;100.00;94248.84;4804550;29;20054;-61
2023/05/08 06:42:38;;;;;;;5.68;3.88;;;;;;;15.02;100.00;94251.53;4804207;29;20046;-61
2023/05/08 06:45:06;;;;;;;5.20;3.87;;;;;;;15.39;100.00;94252.06;4804439;29;20493;-60
2023/05/08 06:47:32;;;;;;;6.65;3.50;;;;;;;15.53;100.00;94246.16;4803870;29;20061;-61
2023/05/08 06:49:59;;;;;;;6.03;3.20;;;;;;;14.32;100.00;94252.88;4803937;29;20054;-65
2023/05/08 06:52:26;;;;;;;7.85;3.55;;;;;;;13.81;100.00;94261.53;4802561;29;20120;-63
2023/05/08 06:54:53;;;;;;;5.57;3.38;;;;;;;14.24;100.00;94257.78;4803518;29;20051;-61
2023/05/08 06:57:19;;;;;;;5.23;3.90;;;;;;;14.26;100.00;94258.13;4804230;29;20038;-65
2023/05/08 06:59:46;;;;;;;5.75;4.00;;;;;;;14.35;100.00;94252.78;4803883;29;20059;-62
2023/05/08 07:02:14;;;;;;;5.55;3.60;;;;;;;14.75;100.00;94252.63;4803872;29;20050;-61
2023/05/08 07:04:42;;;;;;;5.38;3.78;;;;;;;14.95;100.00;94254.47;4803316;29;20059;-61
2023/05/08 07:07:10;;;;;;;5.50;3.72;;;;;;;15.93;100.00;94245.75;4776561;30;20078;-63
2023/05/08 07:09:37;;;;;;;6.37;3.73;;;;;;;15.78;100.00;94256.50;4799855;29;20134;-62
2023/05/08 07:12:04;;;;;;;6.00;4.18;;;;;;;15.54;100.00;94250.47;4787956;29;20412;-61
2023/05/08 07:14:31;;;;;;;6.82;4.03;;;;;;;15.82;100.00;94256.41;4803590;29;20053;-60
2023/05/08 07:16:59;;;;;;;6.40;4.20;;;;;;;15.80;100.00;94256.06;4787519;29;20055;-61
2023/05/08 07:19:26;;;;;;;6.15;4.03;;;;;;;15.77;100.00;94251.41;4803645;29;20051;-61
2023/05/08 07:21:53;;;;;;;5.50;4.07;;;;;;;15.30;100.00;94249.19;4803284;29;20043;-60
2023/05/08 07:24:19;;;;;;;6.15;4.50;;;;;;;15.25;100.00;94258.81;4803634;29;20047;-62
2023/05/08 07:26:46;;;;;;;6.22;4.95;;;;;;;14.60;100.00;94248.66;4803099;29;20047;-61
2023/05/08 07:29:13;;;;;;;7.43;4.80;;;;;;;14.72;100.00;94253.47;4803553;29;20055;-60
2023/05/08 07:31:40;;;;;;;6.47;4.75;;;;;;;15.01;100.00;94246.41;4803300;29;20435;-63
2023/05/08 07:34:07;;;;;;;7.87;5.10;;;;;;;15.80;100.00;94253.31;4775756;29;20481;-61
2023/05/08 07:36:34;;;;;;;8.23;4.82;;;;;;;15.78;100.00;94247.44;4802672;29;20386;-61
2023/05/08 07:39:00;;;;;;;6.55;5.00;;;;;;;15.96;100.00;94246.91;4803037;29;20069;-62
2023/05/08 07:41:27;;;;;;;5.72;4.00;;;;;;;17.92;100.00;94235.06;4803487;29;20077;-61
2023/05/08 07:43:54;;;;;;;7.32;4.47;;;;;;;17.09;100.00;94234.50;4802922;29;20050;-65
2023/05/08 07:46:21;;;;;;;6.27;4.63;;;;;;;16.16;100.00;94241.13;4803697;29;20046;-61
2023/05/08 07:48:48;;;;;;;7.35;5.25;;;;;;;16.32;100.00;94238.25;4802543;29;20050;-61
2023/05/08 07:51:15;;;;;;;5.82;5.10;;;;;;;17.46;100.00;94243.09;4803178;29;20055;-62
2023/05/08 07:53:42;;;;;;;5.25;4.38;;;;;;;18.17;100.00;94239.66;4800846;29;20054;-65
2023/05/08 07:56:09;;;;;;;5.50;3.75;;;;;;;21.32;95.95;94229.41;4802915;29;20063;-63
2023/05/08 07:58:36;;;;;;;5.70;3.50;;;;;;;23.63;70.80;94226.53;4802061;29;20328;-64
2023/05/08 08:01:02;;;;;;;4.20;3.15;;;;;;;23.91;68.85;94230.41;4802216;29;20063;-62
2023/05/08 08:03:29;;;;;;;4.75;3.80;;;;;;;22.04;77.11;94236.81;4802655;29;20055;-62
2023/05/08 08:05:56;;;;;;;6.13;4.05;;;;;;;20.09;95.14;94233.84;4801032;29;20409;-64
2023/05/08 08:08:23;;;;;;;4.50;3.38;;;;;;;22.09;80.66;94233.34;4786479;29;20057;-62
2023/05/08 08:10:49;;;;;;;4.40;3.20;;;;;;;22.64;76.47;94227.09;4801844;29;20420;-62
2023/05/08 08:13:16;;;;;;;4.65;3.70;;;;;;;22.33;78.11;94231.22;4802488;29;20126;-64
2023/05/08 08:15:43;;;;;;;5.47;4.00;;;;;;;18.35;100.00;94236.94;4801117;29;20046;-62
2023/05/08 08:18:10;;;;;;;4.50;3.65;;;;;;;20.19;92.30;94240.16;4802325;29;20509;-62
2023/05/08 08:20:37;;;;;;;5.50;4.20;;;;;;;18.19;100.00;94237.19;4801659;29;20069;-62
2023/05/08 08:23:04;;;;;;;6.00;3.53;;;;;;;19.33;100.00;94242.78;4802131;29;20055;-66
2023/05/08 08:25:31;;;;;;;5.28;3.60;;;;;;;19.75;96.01;94235.81;4801877;29;20051;-65
2023/05/08 08:27:58;;;;;;;5.15;3.20;;;;;;;20.29;93.81;94241.66;4802219;29;20062;-62
2023/05/08 08:30:25;;;;;;;6.30;3.72;;;;;;;20.74;90.71;94234.31;4802257;29;20418;-62
2023/05/08 08:32:52;;;;;;;3.72;2.83;;;;;;;20.17;91.86;94243.41;4785147;29;20058;-61
2023/05/08 08:35:19;;;;;;;4.20;2.70;;;;;;;20.17;92.90;94240.63;4801779;29;20055;-61
2023/05/08 08:37:45;;;;;;;3.45;2.55;;;;;;;20.47;92.75;94235.25;4785126;29;20131;-63
2023/05/08 08:40:12;;;;;;;4.68;2.65;;;;;;;20.93;88.76;94238.56;4801814;29;20047;-62
2023/05/08 08:42:39;;;;;;;3.92;2.63;;;;;;;21.63;81.64;94233.81;4801382;29;20055;-61
2023/05/08 08:45:07;;;;;;;4.32;2.85;;;;;;;22.55;76.52;94230.00;4801664;29;20047;-61
2023/05/08 08:47:40;;;;;;;4.07;2.77;;;;;;;23.27;69.58;94235.03;4801530;29;20047;-62
2023/05/08 08:50:08;;;;;;;5.43;2.30;;;;;;;23.35;67.20;94229.03;4801754;29;20053;-66
2023/05/08 08:52:52;;;;;;;3.22;2.10;;;;;;;21.35;71.45;94234.81;4801234;29;20038;-62
2023/05/08 08:55:22;;;;;;;4.15;2.90;;;;;;;24.04;68.88;94230.00;4801841;29;20434;-62
2023/05/08 08:57:59;;;;;;;4.35;3.40;;;;;;;25.69;59.22;94229.66;4800952;29;20055;-63
2023/05/08 09:00:30;;;;;;;4.30;3.20;;;;;;;22.99;69.63;94231.09;4789986;29;20043;-62
2023/05/08 09:02:56;;;;;;;4.38;2.40;;;;;;;24.19;65.16;94231.91;4800669;29;20039;-64
2023/05/08 09:05:25;;;;;;;3.90;2.40;;;;;;;25.53;60.97;94225.53;4801409;29;20077;-65
2023/05/08 09:07:55;;;;;;;3.92;2.20;;;;;;;22.99;64.17;94222.72;4800410;29;20050;-62
2023/05/08 09:10:23;;;;;;;3.78;2.50;;;;;;;19.98;74.60;94228.00;4801103;29;20054;-64
2023/05/08 09:12:50;;;;;;;4.43;2.30;;;;;;;21.55;75.97;94219.47;4784399;29;20065;-65
2023/05/08 09:15:17;;;;;;;4.05;2.40;;;;;;;23.12;68.54;94220.38;4785515;29;20049;-61
2023/05/08 09:17:44;;;;;;;4.35;2.20;;;;;;;25.14;59.86;94214.91;4800690;29;20058;-62
2023/05/08 09:20:13;;;;;;;4.00;2.58;;;;;;;25.45;57.46;94221.69;4801125;29;20050;-63
2023/05/08 09:22:41;;;;;;;3.85;2.20;;;;;;;26.19;54.04;94212.13;4800611;29;20053;-62
2023/05/08 09:25:09;;;;;;;3.80;2.10;;;;;;;25.91;54.49;94214.91;4801268;29;20141;-62
2023/05/08 09:27:36;;;;;;;3.60;2.10;;;;;;;25.44;55.66;94225.78;4800298;29;20047;-63
2023/05/08 09:30:11;;;;;;;4.28;2.25;;;;;;;25.54;55.22;94227.09;4784849;29;20050;-62
2023/05/08 09:32:40;;;;;;;3.00;2.00;;;;;;;25.40;51.38;94219.66;4800522;29;20058;-62
2023/05/08 09:35:08;;;;;;;4.07;2.40;;;;;;;24.61;54.77;94220.00;4800880;29;20099;-65
2023/05/08 09:37:38;;;;;;;3.63;2.27;;;;;;;24.30;55.81;94224.34;4800434;29;20065;-62
2023/05/08 09:40:19;;;;;;;3.50;2.30;;;;;;;23.50;59.44;94222.06;4801268;29;20047;-62
2023/05/08 09:42:47;;;;;;;3.90;2.55;;;;;;;22.90;63.51;94224.38;4800401;29;20533;-62
2023/05/08 09:45:27;;;;;;;5.13;2.63;;;;;;;22.48;65.70;94220.00;4801210;29;20047;-62
2023/05/08 09:47:54;;;;;;;4.00;2.90;;;;;;;22.93;66.17;94226.19;4800342;29;20362;-62
2023/05/08 09:50:21;;;;;;;4.93;2.50;;;;;;;23.76;61.86;94223.34;4801057;29;20478;-62
2023/05/08 09:52:49;;;;;;;3.40;2.38;;;;;;;23.33;61.40;94218.31;4800033;29;20063;-62
2023/05/08 09:55:17;;;;;;;4.20;2.80;;;;;;;23.06;61.42;94225.09;4801106;29;20065;-64
2023/05/08 09:57:57;;;;;;;4.40;2.60;;;;;;;22.68;61.54;94222.06;4784271;29;20061;-62
2023/05/08 10:00:26;;;;;;;4.03;2.50;;;;;;;22.63;61.98;94216.38;4785037;29;20397;-61
2023/05/08 10:02:56;;;;;;;4.57;2.57;;;;;;;22.72;61.84;94214.22;4799799;29;20051;-62
2023/05/08 10:05:26;;;;;;;3.30;2.60;;;;;;;22.52;65.57;94217.78;4800926;29;20047;-62
2023/05/08 10:07:53;;;;;;;5.28;3.17;;;;;;;23.49;61.40;94214.91;4800344;29;20059;-62
2023/05/08 10:10:27;;;;;;;4.53;2.80;;;;;;;24.28;59.19;94214.88;4784962;29;20054;-62
2023/05/08 10:12:55;;;;;;;5.28;3.00;;;;;;;23.60;59.55;94221.91;4800322;29;20074;-65
2023/05/08 10:15:25;;;;;;;3.67;2.70;;;;;;;23.23;62.17;94212.09;4801050;29;20099;-64
2023/05/08 10:18:07;;;;;;;5.72;2.80;;;;;;;22.52;64.52;94225.41;4799691;29;20119;-62
2023/05/08 10:20:38;;;;;;;4.53;2.90;;;;;;;22.06;66.38;94226.69;4800193;29;20557;-62
2023/05/08 10:23:13;;;;;;;6.13;3.20;;;;;;;21.69;66.70;94224.31;4798815;29;20050;-65
2023/05/08 10:25:44;;;;;;;4.57;2.90;;;;;;;21.78;68.93;94226.22;4794838;29;20047;-64
2023/05/08 10:28:27;;;;;;;4.67;3.00;;;;;;;21.76;67.91;94222.38;4800901;29;20107;-64
2023/05/08 10:30:59;;;;;;;5.88;2.88;;;;;;;21.80;69.19;94229.31;4798225;29;20501;-61
2023/05/08 10:33:32;;;;;;;4.38;2.60;;;;;;;21.96;66.06;94222.47;4800975;29;20085;-61
2023/05/08 10:36:00;;;;;;;4.55;2.60;;;;;;;22.11;65.48;94225.22;4784388;29;20820;-61
2023/05/08 10:38:27;;;;;;;4.00;2.40;;;;;;;22.14;66.95;94216.66;4802230;29;20059;-61
2023/05/08 10:40:56;;;;;;;3.93;2.70;;;;;;;22.14;65.46;94213.09;4803664;29;20051;-65
2023/05/08 10:43:25;;;;;;;4.25;2.70;;;;;;;21.92;65.84;94214.28;4804654;29;20050;-61
2023/05/08 10:45:53;;;;;;;4.22;2.67;;;;;;;21.58;67.04;94212.16;4804026;29;20059;-64
2023/05/08 10:48:45;;;;;;;3.47;2.53;;;;;;;21.94;65.50;94208.19;4792510;29;20069;-62
2023/05/08 10:51:21;;;;;;;3.75;2.67;;;;;;;22.16;64.79;94210.59;4803071;29;20688;-66
2023/05/08 10:54:05;;;;;;;3.53;2.47;;;;;;;21.89;64.66;94206.88;4803916;29;20053;-61
2023/05/08 10:56:32;;;;;;;4.97;2.65;;;;;;;21.31;66.47;94211.91;4803517;29;20066;-63
2023/05/08 10:58:58;;;;;;;5.43;3.15;;;;;;;20.22;79.39;94212.13;4804039;29;20043;-62
2023/05/08 11:01:25;;;;;;;5.85;3.38;;;;;;;19.08;96.92;94210.50;4804040;29;20553;-65
2023/05/08 11:03:54;;;;;;;5.28;3.80;;;;;;;18.00;100.00;94210.56;4803415;29;20210;-61
2023/05/08 11:06:43;;;;;;;5.33;3.80;;;;;;;17.42;100.00;94203.59;4804035;29;20061;-61
2023/05/08 11:09:14;;;;;;;6.22;3.72;;;;;;;17.64;100.00;94203.59;4777737;29;20047;-61
2023/05/08 11:11:58;;;;;;;7.50;3.80;;;;;;;17.17;100.00;94202.53;4803108;29;20077;-64
2023/05/08 11:14:25;;;;;;;7.38;3.60;;;;;;;17.07;100.00;94204.47;4803953;29;20362;-61
2023/05/08 11:16:52;;;;;;;5.55;4.13;;;;;;;17.19;100.00;94205.63;4803309;29;20554;-61
2023/05/08 11:19:20;;;;;;;5.37;3.60;;;;;;;17.73;100.00;94212.75;4803598;29;20053;-60
2023/05/08 11:22:18;;;;;;;5.78;3.60;;;;;;;18.04;100.00;94220.31;4803193;29;20047;-60
2023/05/08 11:24:56;;;;;;;5.25;3.80;;;;;;;17.86;100.00;94212.66;4802956;29;20063;-64
2023/05/08 11:27:47;;;;;;;5.07;3.55;;;;;;;17.74;100.00;94217.03;4803693;29;20039;-65
2023/05/08 11:30:31;;;;;;;5.20;3.25;;;;;;;17.62;100.00;94217.91;4802858;29;20642;-60
2023/05/08 11:33:04;;;;;;;6.40;3.60;;;;;;;17.50;100.00;94219.53;4781728;30;20048;-61
2023/05/08 11:35:50;;;;;;;6.30;3.83;;;;;;;17.50;100.00;94225.09;4801169;29;20053;-60
2023/05/08 11:38:18;;;;;;;7.05;3.95;;;;;;;16.59;100.00;94223.13;4803339;29;20085;-60
2023/05/08 11:40:46;;;;;;;5.47;4.05;;;;;;;16.35;100.00;94226.25;4802738;29;20047;-63